Time;durP1;ratioP1;P1;durP2;ratioP2;P2;SDS_P1;SDS_P2;PMS_P1;PMS_P2;Temp;Humidity;BMP_temperature;BMP_pressure;BME280_temperature;BME280_humidity;BME280_pressure;Samples;Min_cycle;Max_cycle;Signal;HPM_P1;HPM_P2
2023/04/02 00:01:21;;;;;;;3.97;1.42;;;;;;;15.87;41.03;93393.09;5042430;28;20067;-95
2023/04/02 00:03:52;;;;;;;4.43;1.40;;;;;;;15.65;42.02;93392.34;5060279;28;20075;-95
2023/04/02 00:06:29;;;;;;;5.50;1.33;;;;;;;15.38;41.99;93388.34;5060371;28;20427;-94
2023/04/02 00:08:57;;;;;;;5.35;1.00;;;;;;;14.96;39.43;93376.63;5039474;28;20103;-94
2023/04/02 00:11:43;;;;;;;4.05;0.80;;;;;;;15.35;38.69;93381.84;5023217;28;20025;-94
2023/04/02 00:14:16;;;;;;;4.47;1.20;;;;;;;15.95;42.52;93399.41;5026197;28;20037;-94
2023/04/02 00:16:43;;;;;;;5.40;1.15;;;;;;;15.63;44.24;93389.25;5042823;28;20040;-93
2023/04/02 00:19:16;;;;;;;4.40;1.20;;;;;;;15.64;43.48;93404.00;5022732;28;20041;-93
2023/04/02 00:21:42;;;;;;;6.45;1.52;;;;;;;15.56;43.51;93399.56;5024380;28;20478;-94
2023/04/02 00:24:14;;;;;;;12.45;1.63;;;;;;;15.46;42.86;93394.66;5022858;28;20051;-93
2023/04/02 00:26:44;;;;;;;6.07;1.35;;;;;;;14.94;44.28;93399.94;5023776;28;20067;-92
2023/04/02 00:29:12;;;;;;;6.32;1.50;;;;;;;15.53;41.66;93387.75;5039035;28;20034;-91
2023/04/02 00:31:41;;;;;;;6.75;1.30;;;;;;;15.57;39.36;93379.22;5023669;28;20030;-92
2023/04/02 00:34:08;;;;;;;10.82;1.85;;;;;;;15.65;41.88;93387.06;5022316;28;20482;-92
2023/04/02 00:36:34;;;;;;;5.35;1.25;;;;;;;15.65;40.06;93381.78;5039278;28;20039;-93
2023/04/02 00:39:01;;;;;;;7.05;1.20;;;;;;;15.63;39.84;93383.19;5022328;28;20033;-93
2023/04/02 00:41:29;;;;;;;3.00;0.90;;;;;;;15.62;41.46;93376.38;5038709;28;20052;-93
2023/04/02 00:43:56;;;;;;;7.05;1.10;;;;;;;15.40;39.12;93384.28;5039003;28;20383;-92
2023/04/02 00:46:26;;;;;;;12.02;2.38;;;;;;;15.80;38.45;93379.66;5022022;28;20064;-93
2023/04/02 00:49:26;;;;;;;4.50;1.10;;;;;;;15.67;38.36;93387.50;5025143;28;20426;-93
2023/04/02 00:51:59;;;;;;;9.02;1.83;;;;;;;15.76;38.45;93390.09;5059532;28;20029;-93
2023/04/02 00:54:27;;;;;;;12.68;1.60;;;;;;;15.79;38.64;93392.06;5022422;28;20117;-92
2023/04/02 00:56:54;;;;;;;6.18;1.30;;;;;;;15.04;39.50;93382.97;5041937;28;20029;-93
2023/04/02 00:59:33;;;;;;;11.35;1.40;;;;;;;15.22;39.68;93374.97;5022198;28;20449;-94
2023/04/02 01:02:16;;;;;;;11.43;1.52;;;;;;;15.53;39.63;93385.13;5041576;28;20071;-93
2023/04/02 01:04:42;;;;;;;3.73;1.03;;;;;;;15.73;39.00;93372.25;5041905;28;20040;-93
2023/04/02 01:07:09;;;;;;;14.00;1.23;;;;;;;15.53;39.77;93379.84;5022050;28;20351;-93
2023/04/02 01:10:12;;;;;;;6.82;1.15;;;;;;;15.47;42.41;93381.16;5022525;28;20079;-92
2023/04/02 01:12:49;;;;;;;4.13;1.23;;;;;;;15.26;41.88;93383.78;5039604;28;20074;-93
2023/04/02 01:15:29;;;;;;;6.90;1.08;;;;;;;15.57;40.64;93395.81;5038386;28;20033;-91
2023/04/02 01:18:17;;;;;;;10.60;1.35;;;;;;;14.61;43.33;93392.59;5021800;28;20021;-92
2023/04/02 01:21:10;;;;;;;8.30;0.98;;;;;;;15.03;41.22;93394.59;5023480;28;20036;-92
2023/04/02 01:24:04;;;;;;;8.40;1.13;;;;;;;15.54;40.22;93389.31;5022939;28;20378;-92
2023/04/02 01:26:56;;;;;;;5.63;1.17;;;;;;;15.27;39.32;93386.06;5021581;28;20087;-93
2023/04/02 01:29:39;;;;;;;5.50;1.35;;;;;;;15.47;39.99;93383.00;5038334;28;20043;-93
2023/04/02 01:32:08;;;;;;;6.35;1.48;;;;;;;14.69;41.18;93383.13;5021529;28;20033;-93
2023/04/02 01:34:35;;;;;;;6.97;1.40;;;;;;;14.88;41.21;93377.47;5022084;28;20026;-92
2023/04/02 01:37:22;;;;;;;7.90;1.15;;;;;;;14.87;42.07;93388.31;5021412;28;20029;-91
2023/04/02 01:39:55;;;;;;;8.52;1.50;;;;;;;15.03;41.08;93375.38;5040164;28;20427;-92
2023/04/02 01:42:25;;;;;;;8.55;1.55;;;;;;;15.09;41.11;93385.44;5037778;28;20025;-92
2023/04/02 01:44:52;;;;;;;11.18;1.48;;;;;;;15.06;41.44;93383.44;5058029;28;20110;-92
2023/04/02 01:47:24;;;;;;;11.45;1.40;;;;;;;15.17;41.29;93380.41;5037492;28;20067;-92
2023/04/02 01:49:52;;;;;;;9.00;1.33;;;;;;;14.56;45.37;93385.63;5019761;28;20339;-92
2023/04/02 01:52:25;;;;;;;4.13;0.93;;;;;;;14.33;43.96;93386.94;5020880;28;20033;-93
2023/04/02 01:54:52;;;;;;;6.07;1.65;;;;;;;14.15;43.79;93373.84;5020976;28;20025;-92
2023/04/02 01:57:18;;;;;;;10.38;1.70;;;;;;;14.76;43.40;93382.66;5004741;28;20018;-93
2023/04/02 01:59:46;;;;;;;9.25;1.77;;;;;;;14.10;44.77;93384.53;5004599;28;20025;-92
2023/04/02 02:02:12;;;;;;;9.75;1.65;;;;;;;14.89;43.08;93383.50;5020802;28;20056;-93
2023/04/02 02:04:38;;;;;;;10.18;1.67;;;;;;;15.12;42.44;93381.34;5004589;28;20071;-93
2023/04/02 02:07:04;;;;;;;8.30;1.38;;;;;;;14.94;43.71;93392.00;5004501;28;20128;-93
2023/04/02 02:09:32;;;;;;;9.93;2.10;;;;;;;14.56;44.28;93393.56;5004628;28;20144;-93
2023/04/02 02:12:00;;;;;;;10.68;1.63;;;;;;;15.04;43.77;93390.13;5004353;28;20025;-92
2023/04/02 02:14:27;;;;;;;7.18;1.75;;;;;;;14.22;45.14;93386.53;5004422;28;20025;-93
2023/04/02 02:16:55;;;;;;;11.35;1.98;;;;;;;13.74;45.86;93380.41;5004554;28;20335;-93
2023/04/02 02:19:27;;;;;;;12.07;1.88;;;;;;;14.13;45.87;93382.06;5004547;28;20052;-93
2023/04/02 02:21:56;;;;;;;14.73;2.20;;;;;;;14.97;44.08;93380.06;5004183;28;20025;-92
2023/04/02 02:24:28;;;;;;;10.20;1.35;;;;;;;14.54;45.35;93397.56;5004365;28;20033;-93
2023/04/02 02:27:27;;;;;;;14.25;1.73;;;;;;;14.92;45.98;93386.28;5004602;28;20037;-93
2023/04/02 02:30:00;;;;;;;10.55;1.70;;;;;;;15.43;44.06;93392.66;5020340;28;20021;-93
2023/04/02 02:32:26;;;;;;;;;;;;;;;15.63;42.50;93399.78;5021045;28;20060;-93
2023/04/02 02:35:07;;;;;;;9.93;1.38;;;;;;;15.66;43.05;93399.19;5020129;28;19963;-94
2023/04/02 02:37:39;;;;;;;11.45;1.90;;;;;;;15.00;44.68;93410.31;5003872;28;20025;-92
2023/04/02 02:40:10;;;;;;;11.20;1.43;;;;;;;14.73;47.17;93430.75;5020133;28;20022;-93
2023/04/02 02:42:38;;;;;;;10.35;1.30;;;;;;;15.04;44.79;93437.59;5003976;28;20267;-91
2023/04/02 02:45:06;;;;;;;8.82;1.48;;;;;;;14.74;45.32;93437.56;5020052;28;20025;-92
2023/04/02 02:47:36;;;;;;;6.13;1.27;;;;;;;14.06;46.58;93436.28;5003808;28;20029;-91
2023/04/02 02:50:07;;;;;;;5.53;1.20;;;;;;;14.89;44.58;93442.31;5003859;28;20080;-93
2023/04/02 02:52:37;;;;;;;8.07;1.63;;;;;;;14.94;44.27;93447.41;5019958;28;20435;-92
2023/04/02 02:55:07;;;;;;;8.73;1.13;;;;;;;14.40;44.49;93453.13;5003810;28;20025;-91
2023/04/02 02:57:41;;;;;;;8.80;1.30;;;;;;;14.57;44.84;93452.31;5003602;28;20040;-93
2023/04/02 03:00:10;;;;;;;13.77;1.60;;;;;;;14.10;44.33;93456.41;5004109;28;20029;-92
2023/04/02 03:02:38;;;;;;;5.93;1.25;;;;;;;14.96;42.89;93455.00;5020283;28;20025;-92
2023/04/02 03:05:04;;;;;;;7.68;1.60;;;;;;;15.20;42.16;93459.69;5003552;28;20029;-93
2023/04/02 03:07:30;;;;;;;6.63;1.23;;;;;;;15.21;42.67;93457.84;5003431;28;20029;-92
2023/04/02 03:10:22;;;;;;;6.75;1.25;;;;;;;14.98;42.04;93460.72;5003553;28;20032;-92
2023/04/02 03:13:18;;;;;;;10.88;1.33;;;;;;;14.96;43.17;93447.84;5003051;28;20118;-92
2023/04/02 03:15:56;;;;;;;10.27;1.27;;;;;;;15.00;45.58;93439.31;5019818;28;20052;-93
2023/04/02 03:18:37;;;;;;;3.35;0.82;;;;;;;14.74;42.86;93424.38;5019696;28;20072;-94
2023/04/02 03:21:30;;;;;;;3.33;1.02;;;;;;;15.36;45.01;93425.63;5019895;28;20025;-92
2023/04/02 03:24:05;;;;;;;2.42;0.65;;;;;;;14.69;42.94;93412.13;5019966;28;20339;-92
2023/04/02 03:26:34;;;;;;;2.83;0.32;;;;;;;15.31;36.28;93404.69;5019843;28;20056;-92
2023/04/02 03:29:16;;;;;;;0.70;0.65;;;;;;;16.10;32.75;93393.53;5003461;28;20461;-92
2023/04/02 03:31:47;;;;;;;0.47;0.28;;;;;;;16.56;33.53;93403.31;5003585;28;20033;-93
2023/04/02 03:34:19;;;;;;;1.80;0.30;;;;;;;17.15;34.55;93411.22;5003364;28;20061;-92
2023/04/02 03:36:57;;;;;;;2.22;0.60;;;;;;;16.67;37.34;93417.66;5003481;28;20036;-92
2023/04/02 03:39:45;;;;;;;3.75;0.80;;;;;;;16.75;38.04;93423.19;5003249;28;20040;-94
2023/04/02 03:42:25;;;;;;;1.77;0.75;;;;;;;16.92;38.87;93438.06;5003197;28;20030;-92
2023/04/02 03:44:53;;;;;;;2.92;0.73;;;;;;;15.77;42.12;93443.66;5003473;28;20045;-93
2023/04/02 03:47:27;;;;;;;6.00;0.90;;;;;;;15.75;42.75;93441.34;5003062;28;20033;-93
2023/04/02 03:50:02;;;;;;;2.95;0.80;;;;;;;15.58;43.70;93444.13;5003145;28;20026;-93
2023/04/02 03:52:28;;;;;;;5.95;1.27;;;;;;;15.29;44.29;93459.66;5019609;28;20036;-92
2023/04/02 03:54:59;;;;;;;9.43;1.27;;;;;;;15.13;43.42;93465.47;5003154;28;20029;-91
2023/04/02 03:57:30;;;;;;;9.93;1.40;;;;;;;14.82;44.61;93465.75;5003172;28;20473;-93
2023/04/02 04:00:07;;;;;;;10.35;1.40;;;;;;;15.04;44.16;93461.34;5003086;28;20034;-93
2023/04/02 04:02:39;;;;;;;9.02;1.30;;;;;;;14.77;44.83;93473.84;5003021;28;20029;-93
2023/04/02 04:05:05;;;;;;;6.75;1.15;;;;;;;14.52;45.24;93476.97;5003015;28;20033;-92
2023/04/02 04:07:40;;;;;;;8.95;1.30;;;;;;;14.57;44.87;93466.25;5002978;28;20068;-92
2023/04/02 04:10:07;;;;;;;7.20;1.35;;;;;;;14.35;45.36;93469.13;5003025;28;20057;-92
2023/04/02 04:12:39;;;;;;;7.30;1.30;;;;;;;14.43;45.01;93473.56;5002957;28;20075;-93
2023/04/02 04:15:05;;;;;;;2.97;0.90;;;;;;;13.56;45.88;93475.16;5002937;28;20423;-93
2023/04/02 04:17:37;;;;;;;5.70;0.85;;;;;;;14.08;44.98;93482.28;5019292;28;20040;-92
2023/04/02 04:20:16;;;;;;;9.98;1.50;;;;;;;14.10;44.16;93477.47;5019564;28;20037;-92
2023/04/02 04:22:42;;;;;;;6.90;1.38;;;;;;;14.33;43.73;93481.81;5002800;28;20347;-93
2023/04/02 04:25:21;;;;;;;8.80;1.45;;;;;;;14.50;43.87;93473.88;5004014;28;20030;-93
2023/04/02 04:28:04;;;;;;;4.93;0.77;;;;;;;14.54;43.63;93474.81;5009266;28;20033;-93
2023/04/02 04:30:41;;;;;;;8.60;1.27;;;;;;;14.60;43.03;93472.78;5006581;28;20037;-91
2023/04/02 04:33:21;;;;;;;4.55;1.13;;;;;;;14.71;43.08;93478.47;5006521;28;20025;-92
2023/04/02 04:36:01;;;;;;;5.13;1.10;;;;;;;14.55;42.94;93476.34;5006542;28;20029;-92
2023/04/02 04:38:38;;;;;;;7.90;1.05;;;;;;;14.46;42.68;93486.13;5005801;28;20025;-93
2023/04/02 04:41:19;;;;;;;8.57;1.13;;;;;;;14.73;42.95;93489.50;5006822;28;20037;-92
2023/04/02 04:44:11;;;;;;;4.43;1.02;;;;;;;14.91;42.72;93487.59;5013398;28;20060;-92
2023/04/02 04:46:40;;;;;;;9.23;1.60;;;;;;;14.78;42.69;93483.28;5003546;28;20325;-92
2023/04/02 04:49:24;;;;;;;5.60;1.23;;;;;;;14.93;42.77;93490.69;4987035;28;20065;-92
2023/04/02 04:52:25;;;;;;;7.10;1.33;;;;;;;14.76;42.77;93496.78;5005279;28;20067;-91
2023/04/02 04:54:51;;;;;;;8.18;1.48;;;;;;;14.55;43.20;93500.06;5014774;28;20041;-92
2023/04/02 04:57:35;;;;;;;10.15;1.13;;;;;;;15.36;41.99;93499.53;5018688;28;20116;-91
2023/04/02 05:00:15;;;;;;;9.80;1.30;;;;;;;15.10;42.56;93502.25;5021929;28;20080;-92
2023/04/02 05:02:46;;;;;;;10.70;1.85;;;;;;;14.65;43.52;93498.97;5021931;28;20143;-93
2023/04/02 05:05:22;;;;;;;8.65;1.38;;;;;;;15.38;42.32;93504.47;5018499;28;20423;-90
2023/04/02 05:07:50;;;;;;;7.47;1.50;;;;;;;15.22;42.64;93507.66;5004638;28;20036;-92
2023/04/02 05:10:20;;;;;;;9.45;2.10;;;;;;;15.31;42.11;93504.97;5018174;28;20029;-93
2023/04/02 05:12:53;;;;;;;7.65;1.30;;;;;;;15.45;41.85;93512.66;5020657;28;20113;-91
2023/04/02 05:15:30;;;;;;;8.85;1.65;;;;;;;15.49;41.81;93521.50;5031582;28;20033;-92
2023/04/02 05:18:10;;;;;;;9.52;1.70;;;;;;;15.53;41.68;93524.28;5033138;28;20052;-93
2023/04/02 05:20:42;;;;;;;5.45;1.23;;;;;;;15.55;41.58;93527.38;5058223;28;20075;-92
2023/04/02 05:23:11;;;;;;;4.93;1.15;;;;;;;15.61;42.18;93526.06;5034943;28;20032;-93
2023/04/02 05:25:37;;;;;;;9.70;2.03;;;;;;;15.34;41.93;93532.59;5058986;28;20052;-93
2023/04/02 05:28:27;;;;;;;13.15;2.17;;;;;;;15.51;41.81;93539.66;5050608;28;20040;-93
2023/04/02 05:30:55;;;;;;;9.93;1.33;;;;;;;15.16;42.01;93543.22;5041413;28;20075;-93
2023/04/02 05:33:23;;;;;;;8.18;1.65;;;;;;;15.47;41.88;93538.72;5053255;28;20029;-93
2023/04/02 05:36:02;;;;;;;8.27;1.67;;;;;;;15.45;41.82;93544.34;5057256;28;20024;-92
2023/04/02 05:38:31;;;;;;;5.18;1.38;;;;;;;15.54;42.02;93547.69;5037500;28;20029;-93
2023/04/02 05:41:14;;;;;;;7.88;1.95;;;;;;;15.35;41.98;93555.25;5057458;28;20116;-92
2023/04/02 05:43:45;;;;;;;9.60;2.03;;;;;;;15.65;41.65;93561.34;5057848;28;20025;-93
2023/04/02 05:46:21;;;;;;;6.65;1.58;;;;;;;15.45;42.05;93562.03;5051351;28;20037;-93
2023/04/02 05:48:54;;;;;;;7.57;1.80;;;;;;;15.60;42.25;93572.06;5040874;28;20035;-93
2023/04/02 05:51:25;;;;;;;8.35;1.60;;;;;;;15.15;43.93;93559.34;5018980;28;20044;-92
2023/04/02 05:54:03;;;;;;;10.60;1.73;;;;;;;14.70;44.35;93561.28;5004253;28;20147;-93
2023/04/02 05:56:42;;;;;;;4.75;1.45;;;;;;;14.70;44.35;93570.00;5006015;28;20120;-92
2023/04/02 05:59:45;;;;;;;14.15;2.28;;;;;;;14.91;43.80;93571.19;5001227;28;20032;-91
2023/04/02 06:02:18;;;;;;;11.70;1.67;;;;;;;15.49;43.12;93571.66;4907398;29;20042;-93
2023/04/02 06:04:57;;;;;;;7.65;2.17;;;;;;;14.50;45.57;93568.78;4988685;28;20037;-91
2023/04/02 06:07:28;;;;;;;8.57;2.17;;;;;;;15.00;44.47;93571.22;5004277;28;20128;-92
2023/04/02 06:10:04;;;;;;;4.80;1.50;;;;;;;15.36;44.26;93572.63;5004623;28;20422;-92
2023/04/02 06:12:38;;;;;;;7.45;2.08;;;;;;;15.01;45.85;93578.78;5004149;28;20025;-92
2023/04/02 06:15:05;;;;;;;11.07;2.58;;;;;;;14.40;46.05;93574.34;5020382;28;20075;-93
2023/04/02 06:17:33;;;;;;;9.77;2.42;;;;;;;15.00;45.13;93576.47;5005537;28;20029;-92
2023/04/02 06:20:00;;;;;;;10.15;2.47;;;;;;;15.17;44.80;93576.44;5027389;28;20036;-91
2023/04/02 06:22:39;;;;;;;8.25;2.45;;;;;;;15.30;44.85;93590.50;5022410;28;20120;-91
2023/04/02 06:25:21;;;;;;;8.18;2.30;;;;;;;15.55;44.45;93598.66;5005174;28;20033;-91
2023/04/02 06:27:50;;;;;;;9.00;1.92;;;;;;;15.48;44.36;93609.69;5024666;28;20454;-92
2023/04/02 06:30:23;;;;;;;9.80;2.22;;;;;;;15.49;44.93;93605.16;5023826;28;20049;-92
2023/04/02 06:33:07;;;;;;;9.43;2.30;;;;;;;15.71;44.65;93612.09;5026879;28;20037;-91
2023/04/02 06:35:36;;;;;;;9.30;2.08;;;;;;;15.34;44.75;93614.41;5005107;28;20057;-91
2023/04/02 06:38:05;;;;;;;11.55;2.40;;;;;;;15.68;44.23;93604.78;5018626;28;20021;-91
2023/04/02 06:40:49;;;;;;;10.25;2.38;;;;;;;15.59;44.44;93614.63;5004162;28;20033;-92
2023/04/02 06:43:25;;;;;;;10.70;2.03;;;;;;;15.62;44.86;93619.28;5003791;28;20128;-93
2023/04/02 06:46:02;;;;;;;;;;;;;;;;;;;;;
2023/04/02 06:48:28;;;;;;;8.40;2.08;;;;;;;15.49;45.43;93623.66;5017216;28;20040;-92
2023/04/02 06:51:17;;;;;;;11.82;2.80;;;;;;;15.88;45.28;93624.44;5018423;28;20065;-92
2023/04/02 06:53:45;;;;;;;9.98;2.28;;;;;;;16.56;44.60;93627.31;5003360;28;20029;-91
2023/04/02 06:56:30;;;;;;;11.35;3.00;;;;;;;16.35;43.74;93626.22;5002193;28;20053;-93
2023/04/02 06:58:57;;;;;;;10.50;2.72;;;;;;;17.38;43.79;93639.19;5019340;28;20455;-92
2023/04/02 07:01:45;;;;;;;10.13;2.65;;;;;;;18.17;43.93;93648.88;5005708;28;20036;-93
2023/04/02 07:04:29;;;;;;;;;;;;;;;;;;;;;
2023/04/02 07:07:05;;;;;;;;;;;;;;;;;;;;;
2023/04/02 07:09:41;;;;;;;13.77;2.10;;;;;;;18.28;43.08;93670.41;5023293;28;20093;-93
2023/04/02 07:12:15;;;;;;;11.18;2.20;;;;;;;17.87;45.96;93680.88;5022489;28;20033;-93
2023/04/02 07:14:46;;;;;;;11.68;2.10;;;;;;;18.15;42.78;93680.25;5007255;28;20033;-91
2023/04/02 07:17:16;;;;;;;9.23;2.40;;;;;;;17.91;44.76;93678.34;5006183;28;20030;-92
2023/04/02 07:19:44;;;;;;;6.63;1.95;;;;;;;18.41;42.76;93684.44;5020190;28;20037;-92
2023/04/02 07:22:10;;;;;;;10.38;2.10;;;;;;;18.55;42.75;93688.63;5000382;28;20422;-92
2023/04/02 07:24:35;;;;;;;6.95;2.05;;;;;;;19.00;40.89;93695.63;5001136;28;20034;-93
2023/04/02 07:27:01;;;;;;;5.20;1.85;;;;;;;18.56;41.55;93693.56;4999991;28;20453;-93
2023/04/02 07:29:27;;;;;;;6.53;1.77;;;;;;;19.33;39.72;93694.59;5000299;28;20030;-92
2023/04/02 07:32:10;;;;;;;7.15;2.00;;;;;;;19.71;40.16;93697.06;5019447;28;20033;-93
2023/04/02 07:34:36;;;;;;;8.82;2.28;;;;;;;20.12;39.42;93694.25;5021979;28;20029;-92
2023/04/02 07:37:04;;;;;;;8.23;1.98;;;;;;;19.47;38.55;93702.16;5020316;28;20056;-92
2023/04/02 07:39:32;;;;;;;8.98;2.63;;;;;;;20.20;39.09;93702.06;5021045;28;20343;-93
2023/04/02 07:42:02;;;;;;;7.25;2.47;;;;;;;20.71;38.55;93705.84;5020832;28;20032;-92
2023/04/02 07:44:28;;;;;;;14.88;3.13;;;;;;;19.92;39.86;93702.91;5021976;28;20332;-92
2023/04/02 07:47:03;;;;;;;9.95;2.67;;;;;;;21.43;42.02;93706.50;5020691;28;20033;-92
2023/04/02 07:49:36;;;;;;;9.82;2.80;;;;;;;20.77;40.30;93707.09;5020764;28;20033;-93
2023/04/02 07:52:07;;;;;;;11.02;2.25;;;;;;;19.28;41.42;93710.00;5024647;28;20063;-92
2023/04/02 07:54:34;;;;;;;9.50;2.28;;;;;;;20.32;42.00;93716.38;5025970;28;20041;-93
2023/04/02 07:57:02;;;;;;;8.13;2.15;;;;;;;18.27;43.11;93718.47;5038438;28;20030;-92
2023/04/02 07:59:30;;;;;;;9.10;2.63;;;;;;;17.81;44.35;93719.31;5040318;28;20064;-93
2023/04/02 08:01:58;;;;;;;8.50;2.10;;;;;;;18.78;42.43;93731.34;5027895;28;20349;-93
2023/04/02 08:04:24;;;;;;;9.23;2.28;;;;;;;16.89;45.69;93727.88;5027909;28;20397;-92
2023/04/02 08:06:57;;;;;;;13.88;2.63;;;;;;;17.83;44.36;93726.91;5043813;28;20119;-91
2023/04/02 08:09:27;;;;;;;12.88;2.58;;;;;;;18.90;42.19;93735.84;5041404;28;20026;-93
2023/04/02 08:11:55;;;;;;;11.27;2.97;;;;;;;18.84;41.29;93739.88;5044701;28;20162;-93
2023/04/02 08:14:20;;;;;;;16.17;3.40;;;;;;;19.47;42.84;93746.53;5024477;28;20370;-92
2023/04/02 08:16:57;;;;;;;12.38;2.88;;;;;;;19.34;43.43;93754.56;5026262;28;20034;-94
2023/04/02 08:19:23;;;;;;;12.30;2.83;;;;;;;19.32;41.53;93753.38;5025398;28;20053;-93
2023/04/02 08:22:07;;;;;;;10.02;2.33;;;;;;;20.14;39.97;93759.28;5043951;28;20084;-91
2023/04/02 08:24:37;;;;;;;14.40;2.90;;;;;;;19.55;42.13;93768.75;5028114;28;20107;-93
2023/04/02 08:27:22;;;;;;;17.98;2.55;;;;;;;19.54;44.04;93778.63;5044820;28;20334;-92
2023/04/02 08:29:51;;;;;;;14.18;2.58;;;;;;;19.13;44.25;93783.19;5030292;28;20033;-93
2023/04/02 08:32:21;;;;;;;11.13;3.33;;;;;;;18.89;44.58;93782.09;5027805;28;20033;-92
2023/04/02 08:34:52;;;;;;;14.45;3.58;;;;;;;19.66;43.65;93782.34;5030845;28;20036;-90
2023/04/02 08:37:27;;;;;;;13.68;2.83;;;;;;;19.55;43.33;93788.16;5027376;28;20431;-93
2023/04/02 08:40:03;;;;;;;9.98;2.92;;;;;;;20.22;44.76;93794.03;5047757;28;20098;-93
2023/04/02 08:42:33;;;;;;;21.33;3.88;;;;;;;19.66;43.58;93790.31;5026607;28;20135;-93
2023/04/02 08:45:20;;;;;;;19.35;3.72;;;;;;;19.91;45.51;93798.94;5039049;28;20385;-93
2023/04/02 08:47:47;;;;;;;17.05;3.40;;;;;;;19.45;45.19;93805.34;5040958;28;20037;-92
2023/04/02 08:50:33;;;;;;;16.10;3.03;;;;;;;19.69;44.52;93802.94;5022251;28;20124;-92
2023/04/02 08:53:02;;;;;;;7.35;2.92;;;;;;;19.15;45.28;93802.22;5022145;28;20350;-93
2023/04/02 08:55:36;;;;;;;18.83;3.15;;;;;;;18.30;45.51;93798.16;5038533;28;20060;-93
2023/04/02 08:58:05;;;;;;;15.95;3.28;;;;;;;18.02;47.09;93798.75;5022091;28;20029;-93
2023/04/02 09:00:42;;;;;;;14.93;3.40;;;;;;;18.47;46.79;93799.78;5038733;28;20039;-94
2023/04/02 09:03:23;;;;;;;13.93;3.83;;;;;;;19.41;45.04;93811.66;5022015;28;20485;-92
2023/04/02 09:05:49;;;;;;;24.05;4.30;;;;;;;18.41;47.30;93808.28;5024640;28;20029;-93
2023/04/02 09:08:23;;;;;;;12.48;3.53;;;;;;;19.18;46.89;93809.50;5038386;28;20033;-92
2023/04/02 09:11:04;;;;;;;15.18;4.13;;;;;;;19.74;43.93;93811.44;5023880;28;20061;-92
2023/04/02 09:13:33;;;;;;;15.05;3.65;;;;;;;18.16;46.29;93810.94;5038473;28;20029;-92
2023/04/02 09:16:10;;;;;;;11.45;3.25;;;;;;;17.13;50.23;93819.09;5021679;28;20033;-93
2023/04/02 09:18:36;;;;;;;17.77;3.92;;;;;;;16.92;49.62;93833.06;5022389;28;20025;-94
2023/04/02 09:21:28;;;;;;;9.07;3.38;;;;;;;18.22;48.63;93842.22;5038012;28;20040;-91
2023/04/02 09:23:53;;;;;;;9.65;3.15;;;;;;;17.39;49.23;93847.28;5025148;28;20143;-92
2023/04/02 09:26:22;;;;;;;10.80;3.47;;;;;;;17.21;48.93;93857.97;5021925;28;20072;-93
2023/04/02 09:28:52;;;;;;;20.33;4.25;;;;;;;16.51;50.62;93859.09;5040324;28;20025;-93
2023/04/02 09:32:11;;;;;;;18.17;3.60;;;;;;;17.33;49.73;93859.91;5021534;28;20501;-91
2023/04/02 09:34:36;;;;;;;13.13;4.53;;;;;;;16.52;51.74;93865.16;4994608;28;20038;-92
2023/04/02 09:37:13;;;;;;;12.77;4.45;;;;;;;18.02;49.28;93866.84;5037714;28;20381;-93
2023/04/02 09:39:38;;;;;;;19.77;4.68;;;;;;;17.32;49.93;93865.56;5022477;28;20021;-92
2023/04/02 09:42:06;;;;;;;16.77;4.70;;;;;;;16.80;51.39;93870.00;5021476;28;20144;-93
2023/04/02 09:44:33;;;;;;;11.18;4.15;;;;;;;16.99;49.69;93871.47;5021401;28;20465;-92
2023/04/02 09:47:02;;;;;;;13.75;4.65;;;;;;;16.39;51.74;93861.63;5021000;28;20021;-92
2023/04/02 09:49:36;;;;;;;14.60;4.97;;;;;;;16.45;52.07;93880.72;5021497;28;20025;-93
2023/04/02 09:52:05;;;;;;;;;;;;;;;16.99;50.13;93874.94;5021944;28;20025;-93
2023/04/02 09:54:31;;;;;;;13.30;4.93;;;;;;;16.30;51.03;93882.00;5021254;28;20004;-92
2023/04/02 09:57:00;;;;;;;15.63;4.85;;;;;;;16.75;51.14;93881.53;5024676;28;20079;-93
2023/04/02 09:59:25;;;;;;;11.65;4.93;;;;;;;16.33;51.81;93882.16;5021269;28;20029;-93
2023/04/02 10:01:54;;;;;;;9.80;5.15;;;;;;;16.27;52.93;93883.41;5040157;28;20379;-92
2023/04/02 10:04:43;;;;;;;12.98;4.85;;;;;;;17.33;52.77;93880.34;5037424;28;20060;-92
2023/04/02 10:07:30;;;;;;;25.38;6.65;;;;;;;16.43;53.17;93882.94;5021075;28;20029;-92
2023/04/02 10:10:00;;;;;;;11.15;5.28;;;;;;;17.10;52.82;93883.28;5024078;28;20021;-93
2023/04/02 10:12:28;;;;;;;19.02;5.13;;;;;;;17.85;51.02;93891.63;5040398;28;20060;-93
2023/04/02 10:14:55;;;;;;;19.90;8.75;;;;;;;17.51;52.75;93884.41;5023964;28;20053;-93
2023/04/02 10:17:25;;;;;;;23.38;9.38;;;;;;;16.58;55.78;93887.69;5040982;28;20025;-93
2023/04/02 10:20:05;;;;;;;25.95;9.18;;;;;;;17.03;54.78;93888.31;5024294;28;20025;-93
2023/04/02 10:22:31;;;;;;;22.58;9.80;;;;;;;16.77;57.75;93887.28;5020836;28;20028;-93
2023/04/02 10:24:57;;;;;;;26.00;12.85;;;;;;;17.95;56.28;93884.06;5036585;28;20021;-93
2023/04/02 10:27:43;;;;;;;35.80;16.05;;;;;;;18.11;58.87;93880.84;5020369;28;20098;-93
2023/04/02 10:30:46;;;;;;;23.27;9.82;;;;;;;18.85;59.35;93877.50;5020620;28;20030;-92
2023/04/02 10:33:22;;;;;;;82.65;41.03;;;;;;;18.30;57.64;93880.34;5023589;28;20025;-93
2023/04/02 10:36:03;;;;;;;21.10;8.43;;;;;;;20.07;52.09;93881.41;5024645;28;20418;-93
2023/04/02 10:38:49;;;;;;;17.42;6.43;;;;;;;18.73;53.35;93888.91;5057636;28;20067;-93
2023/04/02 10:41:40;;;;;;;16.75;6.70;;;;;;;19.01;52.71;93877.66;5020231;28;20390;-93
2023/04/02 10:44:09;;;;;;;22.10;7.22;;;;;;;18.16;54.96;93885.94;5050929;28;20108;-93
2023/04/02 10:46:51;;;;;;;14.27;5.95;;;;;;;17.24;55.48;93883.03;5034825;28;20144;-93
2023/04/02 10:49:46;;;;;;;12.90;5.15;;;;;;;17.22;57.00;93874.66;5036584;28;20040;-93
2023/04/02 10:52:36;;;;;;;12.02;5.95;;;;;;;18.13;54.12;93862.72;5023439;28;20031;-93
2023/04/02 10:55:15;;;;;;;17.55;5.93;;;;;;;17.40;56.41;93872.66;5039650;28;20148;-92
2023/04/02 10:57:42;;;;;;;10.57;5.30;;;;;;;16.58;57.06;93857.81;5023442;28;20020;-92
2023/04/02 11:00:11;;;;;;;14.68;6.07;;;;;;;19.67;55.66;93864.38;5036407;28;20446;-92
2023/04/02 11:03:16;;;;;;;11.63;5.43;;;;;;;20.05;50.08;93863.16;5037342;28;20466;-92
2023/04/02 11:05:50;;;;;;;11.20;4.30;;;;;;;20.06;47.80;93861.25;5021610;28;20602;-92
2023/04/02 11:08:21;;;;;;;13.18;6.95;;;;;;;20.38;45.77;93863.19;5019881;28;20124;-93
2023/04/02 11:11:09;;;;;;;7.20;3.72;;;;;;;19.24;45.43;93857.84;5022273;28;20339;-92
2023/04/02 11:13:47;;;;;;;8.95;3.38;;;;;;;18.47;47.11;93854.72;5036810;28;20027;-93
2023/04/02 11:16:15;;;;;;;7.03;2.75;;;;;;;19.47;43.66;93850.16;5036240;28;20459;-92
2023/04/02 11:22:13;;;;;;;8.00;3.10;;;;;;;19.64;47.10;93859.75;5057034;28;20075;-94
2023/04/02 11:24:46;;;;;;;7.60;2.65;;;;;;;20.92;44.15;93845.13;5021805;28;20082;-93
2023/04/02 11:27:23;;;;;;;14.52;3.40;;;;;;;20.98;44.30;93852.50;5036797;28;20040;-92
2023/04/02 11:30:15;;;;;;;6.32;3.65;;;;;;;20.52;43.84;93846.84;5023726;28;20092;-93
2023/04/02 11:32:50;;;;;;;7.38;2.90;;;;;;;20.74;44.61;93838.22;5017155;28;20022;-92
2023/04/02 11:35:47;;;;;;;;;;;;;;;;;;;;;
2023/04/02 11:38:31;;;;;;;;;;;;;;;;;;;;;
2023/04/02 11:41:01;;;;;;;6.30;2.70;;;;;;;20.05;47.46;93835.78;5053880;28;20025;-93
2023/04/02 11:43:40;;;;;;;5.90;2.78;;;;;;;20.16;44.10;93828.84;5025526;28;20031;-92
2023/04/02 11:46:17;;;;;;;8.30;3.30;;;;;;;;;;5038472;28;20029;-92
2023/04/02 11:48:55;;;;;;;;;;;;;;;;;;;;;
2023/04/02 11:51:30;;;;;;;6.35;2.80;;;;;;;20.28;42.76;93828.00;5042425;28;20514;-90
2023/04/02 11:53:57;;;;;;;6.88;3.22;;;;;;;20.51;46.60;93818.66;5043989;28;20308;-92
2023/04/02 11:57:03;;;;;;;7.35;3.22;;;;;;;20.13;46.13;93812.81;5028038;28;20035;-92
2023/04/02 12:00:06;;;;;;;6.63;2.85;;;;;;;20.11;41.77;93817.69;5043247;28;20025;-92
2023/04/02 12:03:04;;;;;;;4.60;2.50;;;;;;;19.80;42.51;93817.28;5024410;28;20025;-94
2023/04/02 12:05:53;;;;;;;13.27;2.97;;;;;;;20.32;44.55;93807.59;5024146;28;20026;-95
2023/04/02 12:08:53;;;;;;;6.70;2.83;;;;;;;20.62;44.22;93803.72;5008024;28;20034;-94
2023/04/02 12:11:49;;;;;;;10.80;2.30;;;;;;;21.19;43.20;93806.91;5052207;28;20032;-92
2023/04/02 12:14:36;;;;;;;5.60;2.30;;;;;;;21.77;41.70;93817.97;5036886;28;20036;-91
2023/04/02 12:17:03;;;;;;;4.25;1.95;;;;;;;21.71;41.73;93809.47;5042973;28;20036;-92
2023/04/02 12:19:30;;;;;;;3.70;1.80;;;;;;;22.09;39.55;93806.34;5042399;28;20068;-91